Time;durP1;ratioP1;P1;durP2;ratioP2;P2;SDS_P1;SDS_P2;PMS_P1;PMS_P2;Temp;Humidity;BMP_temperature;BMP_pressure;BME280_temperature;BME280_humidity;BME280_pressure;Samples;Min_cycle;Max_cycle;Signal;HPM_P1;HPM_P2
2022/11/01 00:02:34;;;;;;;34.65;17.85;;;;;;;9.90;100.00;100749.88;12653426;23;20012;-90
2022/11/01 00:07:38;;;;;;;35.03;18.77;;;;;;;9.90;100.00;100692.13;12744139;23;19997;-89
2022/11/01 00:12:43;;;;;;;29.40;17.05;;;;;;;10.77;100.00;100837.44;12732088;23;20023;-89
2022/11/01 00:17:44;;;;;;;30.52;15.82;;;;;;;10.00;100.00;100671.34;12647992;23;20359;-91
2022/11/01 00:22:45;;;;;;;31.90;17.48;;;;;;;11.09;100.00;100848.56;12711180;23;20008;-89
2022/11/01 00:27:46;;;;;;;30.35;15.77;;;;;;;10.65;100.00;100794.38;12727083;23;20008;-89
2022/11/01 00:32:47;;;;;;;30.77;15.20;;;;;;;10.40;100.00;100764.59;12684214;23;20021;-90
2022/11/01 00:37:47;;;;;;;25.83;14.50;;;;;;;10.85;100.00;100825.97;12732643;23;20048;-89
2022/11/01 00:42:48;;;;;;;22.77;13.18;;;;;;;10.67;100.00;100781.19;12675628;23;20012;-89
2022/11/01 00:47:49;;;;;;;25.45;14.75;;;;;;;11.59;100.00;100926.56;12721328;23;20008;-89
2022/11/01 00:52:53;;;;;;;28.35;13.68;;;;;;;11.28;100.00;100825.06;12745693;23;20093;-90
2022/11/01 00:57:54;;;;;;;25.45;13.88;;;;;;;10.46;100.00;100691.19;12771680;23;20072;-90
2022/11/01 01:03:35;;;;;;;26.42;13.10;;;;;;;10.55;100.00;100667.63;12732297;23;20016;-90
2022/11/01 01:09:22;;;;;;;26.95;12.13;;;;;;;10.75;100.00;100711.06;12540917;23;20024;-90
2022/11/01 01:15:05;;;;;;;;;;;;;;;;;;;;;
2022/11/01 01:20:13;;;;;;;24.35;11.43;;;;;;;10.48;100.00;100667.00;12596639;23;20058;-90
2022/11/01 01:25:19;;;;;;;24.63;12.75;;;;;;;10.70;100.00;100697.22;12722729;23;20013;-90
2022/11/01 01:30:22;;;;;;;;;;;;;;;12.25;100.00;100899.59;12767385;23;20016;-90
2022/11/01 01:35:26;;;;;;;19.33;10.32;;;;;;;10.76;100.00;100645.78;12772060;23;19915;-90
2022/11/01 01:40:32;;;;;;;19.88;11.32;;;;;;;10.85;100.00;100644.22;12749784;23;20103;-90
2022/11/01 01:45:38;;;;;;;18.67;11.32;;;;;;;11.15;100.00;100709.78;12736893;23;20009;-91
2022/11/01 01:50:55;;;;;;;22.98;11.18;;;;;;;11.19;100.00;100682.53;12726697;23;20016;-90
2022/11/01 01:56:00;;;;;;;22.00;10.32;;;;;;;11.14;100.00;100636.50;12837340;23;20031;-90
2022/11/01 02:01:10;;;;;;;20.23;9.43;;;;;;;10.87;100.00;100609.84;12739760;23;20032;-89
2022/11/01 02:06:23;;;;;;;15.40;9.43;;;;;;;11.48;100.00;100658.22;12741389;23;20008;-89
2022/11/01 02:11:24;;;;;;;20.17;9.63;;;;;;;11.54;100.00;100645.31;12768365;23;20021;-90
2022/11/01 02:17:03;;;;;;;32.53;10.32;;;;;;;12.27;100.00;100759.38;12711077;23;20064;-89
2022/11/01 02:22:38;;;;;;;20.55;8.60;;;;;;;12.78;100.00;100796.59;12601546;23;20907;-89
2022/11/01 02:28:14;;;;;;;15.40;8.57;;;;;;;12.81;100.00;100790.53;12432337;23;20040;-89
2022/11/01 02:33:39;;;;;;;14.05;8.52;;;;;;;11.25;100.00;100551.97;12687501;23;20017;-90
2022/11/01 02:39:28;;;;;;;16.17;8.55;;;;;;;12.86;100.00;100772.03;12659059;23;20054;-90
2022/11/01 02:44:43;;;;;;;19.85;8.02;;;;;;;11.06;100.00;100477.19;12661877;23;20012;-89
2022/11/01 02:49:50;;;;;;;17.55;7.95;;;;;;;11.44;100.00;100536.63;12621367;23;20096;-90
2022/11/01 02:55:28;;;;;;;18.77;7.00;;;;;;;11.77;100.00;100611.78;12617542;23;20013;-90
2022/11/01 03:00:51;;;;;;;;;;;;;;;;;;;;;
2022/11/01 03:12:41;;;;;;;15.88;8.07;;;;;;;13.01;100.00;100762.13;12477106;23;20369;-89
2022/11/01 03:18:15;;;;;;;24.75;9.35;;;;;;;11.79;100.00;100562.69;12575964;23;20027;-90
2022/11/01 03:23:24;;;;;;;13.88;7.25;;;;;;;11.57;100.00;100539.97;12614881;23;20044;-89
2022/11/01 03:28:31;;;;;;;15.98;8.80;;;;;;;12.59;100.00;100710.63;12672646;23;20013;-89
2022/11/01 03:33:40;;;;;;;20.80;8.68;;;;;;;11.78;100.00;100590.53;12656808;23;20029;-89
2022/11/01 03:38:44;;;;;;;13.80;7.93;;;;;;;11.26;100.00;100504.81;12660812;23;20842;-89
2022/11/01 03:43:47;;;;;;;18.13;6.90;;;;;;;11.07;100.00;100449.34;12664262;23;20067;-89
2022/11/01 03:48:48;;;;;;;15.73;6.78;;;;;;;11.20;100.00;100485.78;12644905;23;20021;-89
2022/11/01 03:53:49;;;;;;;14.40;7.07;;;;;;;11.89;100.00;100586.75;12658131;23;20451;-89
2022/11/01 03:58:50;;;;;;;12.98;7.32;;;;;;;11.76;100.00;100560.47;12645752;23;20005;-89
2022/11/01 04:03:50;;;;;;;16.73;6.68;;;;;;;12.03;100.00;100598.09;12694608;23;20064;-89
2022/11/01 04:08:54;;;;;;;12.52;6.32;;;;;;;11.30;100.00;100486.66;12636127;23;20029;-89
2022/11/01 04:24:39;;;;;;;12.52;6.68;;;;;;;12.02;100.00;100541.28;12687806;23;20390;-89
2022/11/01 04:29:39;;;;;;;11.48;5.93;;;;;;;13.25;100.00;100718.19;12686707;23;20051;-90
2022/11/01 04:34:43;;;;;;;11.73;5.82;;;;;;;11.32;100.00;100458.84;12714839;23;20027;-89
2022/11/01 04:39:44;;;;;;;14.95;6.20;;;;;;;12.38;100.00;100594.63;12757353;23;20515;-89
2022/11/01 04:44:46;;;;;;;13.48;6.32;;;;;;;13.12;100.00;100725.94;12769689;23;20011;-89
2022/11/01 04:49:47;;;;;;;11.50;6.05;;;;;;;11.64;100.00;100471.66;12753753;23;20101;-89
2022/11/01 04:54:48;;;;;;;14.50;6.18;;;;;;;12.47;100.00;100605.97;12764337;23;20005;-89
2022/11/01 04:59:53;;;;;;;10.18;5.93;;;;;;;11.88;100.00;100541.78;12717317;23;20067;-89
2022/11/01 05:04:56;;;;;;;18.90;6.55;;;;;;;12.38;100.00;100574.44;12791308;23;20012;-89
2022/11/01 05:09:57;;;;;;;12.32;5.93;;;;;;;12.05;100.00;100552.59;12752921;23;20092;-89
2022/11/01 05:14:58;;;;;;;11.63;6.50;;;;;;;12.78;100.00;100659.31;12731361;23;20098;-89
2022/11/01 05:19:59;;;;;;;11.30;5.65;;;;;;;12.70;100.00;100646.03;12795209;23;20034;-89
2022/11/01 05:24:59;;;;;;;9.13;5.90;;;;;;;12.35;100.00;100603.44;12701784;23;20028;-89
2022/11/01 05:30:00;;;;;;;12.70;6.05;;;;;;;12.37;100.00;100620.56;12744271;23;20458;-89
2022/11/01 05:35:03;;;;;;;14.48;5.32;;;;;;;11.56;100.00;100485.97;12757684;23;20021;-90
2022/11/01 05:40:05;;;;;;;12.23;5.68;;;;;;;12.94;100.00;100701.59;12728716;23;20019;-90
2022/11/01 05:45:05;;;;;;;12.23;5.80;;;;;;;12.16;100.00;100613.34;12785294;23;20303;-89
2022/11/01 05:50:15;;;;;;;14.15;6.38;;;;;;;11.65;100.00;100515.47;12749101;23;20028;-90
2022/11/01 05:55:16;;;;;;;17.67;6.65;;;;;;;12.27;100.00;100620.53;12784919;23;20058;-89
2022/11/01 06:00:17;;;;;;;12.10;6.38;;;;;;;12.32;100.00;100637.13;12750325;23;20034;-90
2022/11/01 06:05:17;;;;;;;11.07;5.80;;;;;;;11.81;100.00;100512.78;12712535;23;20091;-90
2022/11/01 06:10:21;;;;;;;9.32;4.82;;;;;;;13.23;100.00;100737.84;12722260;23;20016;-90
2022/11/01 06:15:24;;;;;;;9.20;4.10;;;;;;;13.43;100.00;100687.25;12763511;23;20432;-90
2022/11/01 06:20:29;;;;;;;9.00;3.73;;;;;;;13.27;100.00;100641.31;12749292;23;20015;-90
2022/11/01 06:25:29;;;;;;;9.35;3.95;;;;;;;13.50;100.00;100671.22;12771615;23;20009;-88
2022/11/01 06:30:30;;;;;;;7.28;4.03;;;;;;;13.85;100.00;100758.03;12742027;23;20012;-91
2022/11/01 06:35:42;;;;;;;9.40;2.92;;;;;;;13.07;100.00;100647.72;12709929;23;20016;-91
2022/11/01 06:40:43;;;;;;;3.58;1.65;;;;;;;13.04;100.00;100643.56;12705960;23;20008;-92
2022/11/01 06:45:46;;;;;;;7.45;1.70;;;;;;;14.15;100.00;100874.50;12673618;23;20035;-92
2022/11/01 06:50:49;;;;;;;5.85;1.27;;;;;;;12.71;100.00;100648.53;12692025;23;20012;-96
2022/11/01 06:55:51;;;;;;;4.07;1.10;;;;;;;12.78;100.00;100713.72;12733418;23;20026;-92
2022/11/01 07:00:51;;;;;;;7.28;1.20;;;;;;;12.67;100.00;100722.00;12644710;23;20037;-89
2022/11/01 07:05:52;;;;;;;5.13;1.30;;;;;;;12.00;100.00;100678.66;12717802;23;20017;-89
2022/11/01 07:11:12;;;;;;;3.90;0.65;;;;;;;13.44;100.00;100959.94;12657719;23;20446;-90
2022/11/01 07:16:48;;;;;;;5.10;0.90;;;;;;;11.68;100.00;100674.06;12651144;23;20049;-90
2022/11/01 07:21:57;;;;;;;3.28;1.00;;;;;;;12.18;100.00;100727.06;12741035;23;20248;-88
2022/11/01 07:27:01;;;;;;;6.07;0.95;;;;;;;11.25;100.00;100615.34;12781869;23;20004;-92
2022/11/01 07:32:01;;;;;;;3.88;1.23;;;;;;;12.65;100.00;100818.09;12775405;23;20746;-88
2022/11/01 07:37:02;;;;;;;3.20;0.80;;;;;;;11.75;100.00;100677.41;12785310;23;20043;-88
2022/11/01 07:42:02;;;;;;;4.90;1.33;;;;;;;12.08;100.00;100733.34;12762872;23;20009;-87
2022/11/01 07:47:03;;;;;;;7.75;1.77;;;;;;;12.74;100.00;100859.03;12757812;23;20009;-88
2022/11/01 07:52:04;;;;;;;6.95;1.27;;;;;;;12.24;100.00;100761.84;12785294;23;20020;-88
2022/11/01 07:57:04;;;;;;;4.35;1.08;;;;;;;12.00;100.00;100687.75;12800395;23;20011;-89
2022/11/01 08:02:05;;;;;;;6.40;0.90;;;;;;;12.65;100.00;100798.78;12787453;23;20001;-88
2022/11/01 08:07:06;;;;;;;3.13;0.82;;;;;;;12.14;100.00;100726.75;12767576;23;20345;-88
2022/11/01 08:12:06;;;;;;;3.92;0.85;;;;;;;13.48;100.00;100911.28;12729935;23;20039;-90
2022/11/01 08:17:24;;;;;;;4.45;0.80;;;;;;;13.08;100.00;100846.44;12697594;23;20035;-93
2022/11/01 08:22:30;;;;;;;6.60;1.05;;;;;;;12.64;100.00;100763.13;12696165;23;20076;-90
2022/11/01 08:27:31;;;;;;;6.70;0.90;;;;;;;14.13;100.00;101038.13;12743026;23;20008;-89
2022/11/01 08:32:31;;;;;;;7.53;1.20;;;;;;;13.96;100.00;100951.75;12768146;23;20060;-88
2022/11/01 08:37:32;;;;;;;9.02;1.20;;;;;;;13.76;100.00;100939.53;12782710;23;20012;-87
2022/11/01 08:42:36;;;;;;;10.20;1.25;;;;;;;13.87;100.00;100949.53;12774115;23;20040;-90
2022/11/01 08:47:40;;;;;;;15.05;1.65;;;;;;;13.19;100.00;100850.06;12771891;23;20000;-89
2022/11/01 08:52:41;;;;;;;8.15;1.38;;;;;;;14.18;100.00;101029.00;12781217;23;20340;-89
2022/11/01 08:57:42;;;;;;;7.53;2.35;;;;;;;13.17;100.00;100834.81;12751821;23;20009;-89
2022/11/01 09:02:45;;;;;;;9.68;1.52;;;;;;;13.32;100.00;100845.97;12762337;23;20009;-89
2022/11/01 09:07:46;;;;;;;13.27;2.70;;;;;;;14.07;100.00;101039.22;12748456;23;20009;-88
2022/11/01 09:12:47;;;;;;;15.80;3.67;;;;;;;13.85;100.00;100971.13;12756658;23;20031;-90
2022/11/01 09:17:47;;;;;;;13.30;1.80;;;;;;;13.18;100.00;100803.34;12787396;23;20036;-88
2022/11/01 09:22:53;;;;;;;11.65;1.75;;;;;;;13.97;100.00;100923.78;12772313;23;20005;-89
2022/11/01 09:27:56;;;;;;;13.27;2.92;;;;;;;13.87;100.00;100908.00;12744604;23;20020;-89
2022/11/01 09:32:57;;;;;;;13.07;3.20;;;;;;;13.68;100.00;100898.56;12795513;23;20025;-91
2022/11/01 09:38:00;;;;;;;16.50;2.05;;;;;;;12.93;100.00;100799.41;12784670;23;20100;-88
2022/11/01 09:43:08;;;;;;;15.25;2.17;;;;;;;13.50;100.00;100886.13;12773441;23;20020;-88
2022/11/01 09:48:09;;;;;;;22.17;3.25;;;;;;;13.01;100.00;100796.09;12785979;23;20001;-89
2022/11/01 09:53:38;;;;;;;15.88;2.80;;;;;;;14.85;100.00;101052.06;12754326;23;20470;-88
2022/11/01 09:59:00;;;;;;;10.10;2.15;;;;;;;14.89;100.00;101062.28;12748137;23;20084;-88
2022/11/01 10:04:08;;;;;;;14.43;2.67;;;;;;;14.01;100.00;100918.53;12798772;23;20099;-89
2022/11/01 10:09:26;;;;;;;16.42;3.17;;;;;;;15.09;100.00;101082.81;12763965;23;20459;-90
2022/11/01 10:14:34;;;;;;;15.15;2.28;;;;;;;14.13;100.00;100921.84;12709497;23;20032;-89
2022/11/01 10:19:37;;;;;;;15.60;2.15;;;;;;;13.83;100.00;100851.56;12701544;23;20043;-90
2022/11/01 10:24:51;;;;;;;14.15;2.20;;;;;;;13.49;100.00;100802.28;12727085;23;20005;-89
2022/11/01 10:30:23;;;;;;;11.32;2.20;;;;;;;13.95;100.00;100855.97;12639944;23;20040;-90
2022/11/01 10:35:28;;;;;;;20.58;3.05;;;;;;;14.37;100.00;100861.19;12747918;23;20021;-89
2022/11/01 10:40:37;;;;;;;11.38;2.70;;;;;;;14.69;100.00;100973.63;12697859;23;20419;-88
2022/11/01 10:45:38;;;;;;;11.07;2.10;;;;;;;14.82;100.00;100961.97;12745586;23;20462;-88
2022/11/01 10:50:38;;;;;;;16.50;3.10;;;;;;;14.73;100.00;100931.22;12733626;23;20020;-88
2022/11/01 10:55:44;;;;;;;19.23;2.55;;;;;;;15.04;100.00;101008.75;12695046;23;20351;-88
2022/11/01 11:00:47;;;;;;;18.40;2.53;;;;;;;14.53;100.00;100893.28;12712208;23;20021;-90
2022/11/01 11:05:50;;;;;;;18.05;2.28;;;;;;;14.60;100.00;100936.53;12713983;23;20009;-89
2022/11/01 11:10:51;;;;;;;16.17;2.72;;;;;;;14.07;100.00;100870.34;12719258;23;20074;-88
2022/11/01 11:16:04;;;;;;;11.90;2.17;;;;;;;15.07;100.00;101085.84;12736564;23;20065;-88
2022/11/01 11:21:07;;;;;;;11.98;2.15;;;;;;;14.50;100.00;101024.03;12766534;23;20091;-88
2022/11/01 11:26:12;;;;;;;12.65;2.72;;;;;;;13.70;100.00;100932.31;12730043;23;20005;-87
2022/11/01 11:31:30;;;;;;;13.43;2.83;;;;;;;15.05;100.00;101115.81;12753890;23;20019;-87
2022/11/01 11:36:34;;;;;;;22.65;2.83;;;;;;;14.33;100.00;101034.56;12720401;23;20023;-88
2022/11/01 11:41:38;;;;;;;13.88;2.20;;;;;;;13.68;100.00;100895.81;12787248;23;20013;-90
2022/11/01 11:46:41;;;;;;;17.95;2.75;;;;;;;13.84;100.00;100921.56;12746201;23;20466;-90
2022/11/01 11:51:41;;;;;;;12.13;2.80;;;;;;;14.61;100.00;100988.88;12757200;23;20016;-89
2022/11/01 11:56:45;;;;;;;15.13;3.95;;;;;;;14.99;100.00;100983.84;12748334;23;20055;-90
2022/11/01 12:01:48;;;;;;;14.48;3.17;;;;;;;15.12;100.00;101016.50;12753894;23;20018;-89
2022/11/01 12:06:49;;;;;;;19.60;3.15;;;;;;;15.37;100.00;101000.91;12629929;23;20382;-89
2022/11/01 12:11:50;;;;;;;11.25;1.98;;;;;;;16.64;100.00;101220.81;12793913;23;20016;-89
2022/11/01 12:16:53;;;;;;;16.88;2.60;;;;;;;16.35;100.00;101126.22;12760661;23;20066;-89
2022/11/01 12:21:59;;;;;;;12.32;2.70;;;;;;;16.16;100.00;101037.16;12776741;23;20040;-89
2022/11/01 12:27:05;;;;;;;17.13;3.05;;;;;;;15.58;100.00;100989.72;12750416;23;20032;-89
2022/11/01 12:32:13;;;;;;;15.43;2.75;;;;;;;16.04;100.00;101062.50;12757794;23;20021;-89
2022/11/01 12:37:27;;;;;;;15.35;2.53;;;;;;;15.59;100.00;100996.94;12817112;23;20355;-89
2022/11/01 12:42:31;;;;;;;10.98;2.38;;;;;;;15.76;100.00;101064.03;12775639;23;20072;-89
2022/11/01 12:47:41;;;;;;;13.93;2.25;;;;;;;16.63;100.00;101104.34;12767688;23;20150;-88
2022/11/01 12:52:55;;;;;;;13.10;2.42;;;;;;;17.67;100.00;101119.78;12761979;23;20024;-89
2022/11/01 12:57:55;;;;;;;12.85;2.03;;;;;;;16.88;100.00;100978.22;12806006;23;20008;-90
2022/11/01 13:02:59;;;;;;;10.45;2.35;;;;;;;18.35;100.00;101072.13;12660666;23;20037;-89
2022/11/01 13:08:30;;;;;;;7.40;1.45;;;;;;;19.42;100.00;101174.72;12790141;23;20036;-89
2022/11/01 13:13:55;;;;;;;15.25;3.22;;;;;;;18.39;100.00;101082.66;12777746;23;20013;-89
2022/11/01 13:18:56;;;;;;;12.82;1.90;;;;;;;17.62;100.00;101016.84;12777503;23;20007;-87
2022/11/01 13:24:12;;;;;;;12.02;1.50;;;;;;;17.97;100.00;101162.38;12757172;23;20015;-89
2022/11/01 13:29:16;;;;;;;12.65;1.90;;;;;;;16.94;100.00;101166.13;12718753;23;20103;-88
2022/11/01 13:34:25;;;;;;;8.88;1.67;;;;;;;16.31;100.00;101111.25;12750233;23;20017;-89
2022/11/01 13:39:50;;;;;;;9.43;1.65;;;;;;;15.90;100.00;101092.84;12724418;23;20066;-86
2022/11/01 13:45:14;;;;;;;8.75;1.70;;;;;;;16.36;100.00;101166.78;12704979;23;20048;-90
2022/11/01 13:50:15;;;;;;;14.60;1.98;;;;;;;16.86;100.00;101131.44;12661228;23;20017;-90
2022/11/01 13:55:35;;;;;;;8.18;1.70;;;;;;;17.53;100.00;101045.34;12719096;23;20010;-88
2022/11/01 14:01:05;;;;;;;7.25;1.33;;;;;;;17.64;100.00;101156.59;12556955;23;20055;-93
2022/11/01 14:12:42;;;;;;;8.82;1.65;;;;;;;17.26;100.00;101001.44;12594663;23;20025;-91
2022/11/01 14:17:53;;;;;;;9.95;1.65;;;;;;;17.66;100.00;101162.69;12613034;23;20058;-92
2022/11/01 14:23:31;;;;;;;14.68;3.30;;;;;;;17.09;100.00;101213.28;12595807;23;20010;-94
2022/11/01 14:28:32;;;;;;;11.23;1.60;;;;;;;14.74;100.00;100957.00;12670195;23;20522;-89
2022/11/01 14:33:33;;;;;;;8.57;1.73;;;;;;;14.63;100.00;101017.13;12693962;23;20025;-88
2022/11/01 14:38:36;;;;;;;10.75;1.55;;;;;;;15.34;100.00;101190.94;12726423;23;20070;-90
2022/11/01 14:44:00;;;;;;;7.50;1.52;;;;;;;14.21;100.00;100973.09;12707945;23;20031;-89
2022/11/01 14:49:22;;;;;;;17.10;2.38;;;;;;;16.31;100.00;101192.63;12704007;23;20022;-89
2022/11/01 14:54:51;;;;;;;13.88;1.88;;;;;;;17.20;100.00;101207.66;12726221;23;20001;-89
2022/11/01 14:59:52;;;;;;;7.03;1.40;;;;;;;16.44;100.00;101107.00;12728384;23;20001;-88
2022/11/01 15:04:57;;;;;;;15.70;2.67;;;;;;;15.99;100.00;101073.63;12679167;23;20052;-91
2022/11/01 15:10:06;;;;;;;10.15;1.67;;;;;;;15.01;100.00;101042.59;12666075;23;20017;-90
2022/11/01 15:15:15;;;;;;;15.50;2.22;;;;;;;14.08;100.00;101011.28;12677959;23;20026;-92
2022/11/01 15:20:16;;;;;;;15.07;1.75;;;;;;;13.84;100.00;101080.13;12727041;23;20005;-90
2022/11/01 15:25:24;;;;;;;12.57;1.83;;;;;;;13.73;100.00;101095.03;12711532;23;20004;-89
2022/11/01 15:36:37;;;;;;;8.25;1.42;;;;;;;12.95;100.00;101026.56;12482093;23;20501;-84
2022/11/01 15:47:22;;;;;;;8.90;1.50;;;;;;;14.07;100.00;101272.59;12920652;22;20028;-80
2022/11/01 15:52:26;;;;;;;8.88;1.65;;;;;;;13.82;100.00;101231.78;12874012;23;20016;-79
2022/11/01 15:57:28;;;;;;;8.73;1.42;;;;;;;13.92;100.00;101289.97;12860734;23;20158;-79
2022/11/01 16:02:40;;;;;;;8.65;1.90;;;;;;;13.84;100.00;101287.69;12847749;23;20016;-80
2022/11/01 16:07:40;;;;;;;6.90;1.15;;;;;;;13.69;100.00;101276.53;12838884;23;20426;-78
2022/11/01 16:12:42;;;;;;;16.25;1.90;;;;;;;13.55;100.00;101276.13;12849186;23;20378;-79
2022/11/01 16:17:43;;;;;;;8.23;1.38;;;;;;;13.34;100.00;101264.06;12823453;23;20008;-80
2022/11/01 16:22:47;;;;;;;5.50;1.30;;;;;;;13.20;100.00;101262.81;12849760;23;20067;-80
2022/11/01 16:28:09;;;;;;;10.00;1.20;;;;;;;13.27;100.00;101271.72;12848696;23;20020;-81
2022/11/01 16:33:21;;;;;;;5.80;1.15;;;;;;;13.46;100.00;101284.09;12848438;23;20020;-81
2022/11/01 16:38:42;;;;;;;7.65;1.58;;;;;;;13.52;100.00;101294.09;12872588;23;20016;-79
2022/11/01 16:43:42;;;;;;;12.00;1.23;;;;;;;13.53;100.00;101279.16;12856373;23;20072;-80
2022/11/01 16:48:56;;;;;;;8.18;1.38;;;;;;;13.58;100.00;101292.22;12773688;23;20020;-81
2022/11/01 16:53:59;;;;;;;10.98;1.30;;;;;;;13.47;100.00;101302.34;12785056;23;20032;-83
2022/11/01 16:59:05;;;;;;;7.35;1.25;;;;;;;13.20;100.00;101274.69;12807558;23;20016;-80
2022/11/01 17:04:05;;;;;;;5.57;1.43;;;;;;;13.23;100.00;101314.81;12809785;23;20016;-81
2022/11/01 17:09:11;;;;;;;9.18;1.80;;;;;;;13.09;100.00;101306.94;12770664;23;20017;-83
2022/11/01 17:14:11;;;;;;;5.05;1.48;;;;;;;12.75;100.00;101288.88;12784201;23;20040;-82
2022/11/01 17:19:28;;;;;;;7.13;1.65;;;;;;;12.45;100.00;101284.66;12832676;23;20008;-81
2022/11/01 17:24:29;;;;;;;8.60;2.03;;;;;;;12.32;100.00;101302.44;12808439;23;20027;-80
2022/11/01 17:29:30;;;;;;;9.98;1.75;;;;;;;12.15;100.00;101310.75;12758640;23;20017;-80
2022/11/01 17:34:31;;;;;;;6.38;1.48;;;;;;;12.14;100.00;101325.66;12807831;23;20031;-79
2022/11/01 17:39:31;;;;;;;7.38;1.60;;;;;;;12.09;100.00;101314.53;12834940;23;20024;-80
2022/11/01 17:44:32;;;;;;;9.00;1.23;;;;;;;12.05;100.00;101316.13;12762433;23;20028;-81
2022/11/01 17:49:32;;;;;;;5.25;1.23;;;;;;;12.00;100.00;101318.81;12779875;23;20013;-79
2022/11/01 17:54:33;;;;;;;10.02;1.60;;;;;;;11.88;100.00;101322.50;12832895;23;20383;-81
2022/11/01 17:59:33;;;;;;;11.88;1.85;;;;;;;11.83;100.00;101316.03;12831913;23;20016;-80
2022/11/01 18:04:34;;;;;;;11.68;2.30;;;;;;;11.72;100.00;101309.53;12834003;23;20028;-80
2022/11/01 18:09:34;;;;;;;6.78;1.48;;;;;;;11.73;100.00;101311.19;12832964;23;20009;-78
2022/11/01 18:14:54;;;;;;;11.68;1.50;;;;;;;11.59;100.00;101298.81;12782611;23;20032;-80
2022/11/01 18:20:13;;;;;;;11.50;1.70;;;;;;;11.62;100.00;101310.19;12759301;23;20043;-80
2022/11/01 18:25:13;;;;;;;7.07;1.50;;;;;;;11.61;100.00;101307.69;12835485;23;20307;-80
2022/11/01 18:30:16;;;;;;;6.78;1.55;;;;;;;11.59;100.00;101304.34;12837155;23;20024;-79
2022/11/01 18:35:22;;;;;;;7.43;1.48;;;;;;;11.65;100.00;101303.34;12812566;23;20028;-80
2022/11/01 18:40:29;;;;;;;10.13;1.60;;;;;;;11.59;100.00;101298.81;12788042;23;20050;-80
2022/11/01 18:45:29;;;;;;;8.68;2.20;;;;;;;11.58;100.00;101289.72;12787327;23;20056;-79
2022/11/01 18:50:30;;;;;;;10.40;2.15;;;;;;;11.66;100.00;101294.00;12746605;23;20033;-82
2022/11/01 18:55:33;;;;;;;8.05;1.70;;;;;;;11.80;100.00;101299.97;12811569;23;20024;-81
2022/11/01 19:00:34;;;;;;;7.43;1.50;;;;;;;11.82;100.00;101290.34;12778988;23;20059;-80
2022/11/01 19:05:35;;;;;;;9.38;1.83;;;;;;;11.88;100.00;101297.66;12762983;23;20389;-80
2022/11/01 19:10:37;;;;;;;12.70;1.98;;;;;;;11.93;100.00;101296.91;12811075;23;20048;-82
2022/11/01 19:15:37;;;;;;;7.82;1.25;;;;;;;11.99;100.00;101303.34;12785013;23;20021;-82
2022/11/01 19:20:45;;;;;;;10.55;1.42;;;;;;;12.02;100.00;101302.84;12783660;23;20028;-82
2022/11/01 19:25:46;;;;;;;7.32;1.27;;;;;;;12.04;100.00;101298.72;12776427;23;20024;-80
2022/11/01 19:30:49;;;;;;;8.50;1.52;;;;;;;11.89;100.00;101277.28;12781261;23;20535;-81
2022/11/01 19:35:51;;;;;;;8.20;1.70;;;;;;;12.09;100.00;101278.66;12809488;23;20012;-81
2022/11/01 19:40:52;;;;;;;9.73;2.33;;;;;;;12.29;100.00;101292.72;12776513;23;20023;-79
2022/11/01 19:45:53;;;;;;;8.57;1.30;;;;;;;12.45;100.00;101298.47;12804113;23;20100;-81
2022/11/01 19:50:54;;;;;;;5.60;1.45;;;;;;;12.48;100.00;101292.41;12823507;23;20246;-82
2022/11/01 19:56:01;;;;;;;7.45;1.35;;;;;;;12.41;100.00;101272.47;12788073;23;20020;-81
2022/11/01 20:01:07;;;;;;;9.45;1.50;;;;;;;12.44;100.00;101291.25;12831767;23;20580;-81
2022/11/01 20:06:14;;;;;;;;;;;;;;;12.50;100.00;101293.00;12876793;23;20015;-81
2022/11/01 20:11:15;;;;;;;10.10;1.85;;;;;;;12.51;100.00;101294.69;12858238;23;19922;-81
2022/11/01 20:16:16;;;;;;;7.72;1.35;;;;;;;12.44;100.00;101269.16;12819060;23;20016;-80
2022/11/01 20:21:16;;;;;;;6.82;1.70;;;;;;;12.61;100.00;101293.94;12810653;23;20017;-80
2022/11/01 20:26:17;;;;;;;11.80;1.80;;;;;;;12.44;100.00;101285.72;12835823;23;20012;-82
2022/11/01 20:31:17;;;;;;;6.72;1.40;;;;;;;12.48;100.00;101284.97;12858432;23;20013;-80
2022/11/01 20:36:18;;;;;;;5.07;1.35;;;;;;;12.43;100.00;101292.38;12804177;23;20024;-80
2022/11/01 20:41:19;;;;;;;10.20;2.17;;;;;;;12.44;100.00;101305.91;12832457;23;20025;-80
2022/11/01 20:46:20;;;;;;;10.38;1.63;;;;;;;12.27;100.00;101297.66;12783789;23;20074;-81
2022/11/01 20:51:20;;;;;;;9.90;1.73;;;;;;;12.43;100.00;101314.47;12809026;23;20017;-81
2022/11/01 20:56:21;;;;;;;9.07;2.05;;;;;;;12.08;100.00;101236.41;12810501;23;20147;-81
2022/11/01 21:01:22;;;;;;;6.07;2.17;;;;;;;12.39;100.00;101277.41;12809818;23;20122;-81
2022/11/01 21:06:25;;;;;;;12.32;1.40;;;;;;;12.45;100.00;101290.19;12808626;23;20071;-82
2022/11/01 21:11:42;;;;;;;7.15;1.67;;;;;;;12.46;100.00;101291.84;12784444;23;20187;-81
2022/11/01 21:16:43;;;;;;;7.10;1.58;;;;;;;12.51;100.00;101283.63;12815112;23;20060;-80
2022/11/01 21:21:44;;;;;;;5.75;1.50;;;;;;;12.38;100.00;101257.25;12810096;23;20016;-81
2022/11/01 21:26:46;;;;;;;7.82;1.45;;;;;;;12.47;100.00;101285.22;12809859;23;20533;-81
2022/11/01 21:31:47;;;;;;;12.10;2.20;;;;;;;12.40;100.00;101273.53;12834114;23;20032;-80
2022/11/01 21:36:48;;;;;;;5.75;1.52;;;;;;;12.34;100.00;101271.81;12807515;23;20075;-80
2022/11/01 21:41:50;;;;;;;16.27;2.45;;;;;;;12.03;100.00;101232.75;12837718;23;20016;-80
2022/11/01 21:47:10;;;;;;;18.58;2.72;;;;;;;12.25;100.00;101269.47;12800665;23;20024;-80
2022/11/01 21:52:11;;;;;;;10.45;1.80;;;;;;;12.07;100.00;101250.47;12807323;23;20016;-81
2022/11/01 21:57:12;;;;;;;7.07;1.35;;;;;;;12.07;100.00;101255.97;12832026;23;20013;-81
2022/11/01 22:02:14;;;;;;;8.68;1.60;;;;;;;12.12;100.00;101253.31;12829390;23;20017;-81
2022/11/01 22:07:14;;;;;;;5.88;1.67;;;;;;;12.19;100.00;101255.88;12836750;23;20110;-80
2022/11/01 22:12:15;;;;;;;10.02;1.67;;;;;;;12.16;100.00;101248.94;12861946;23;20017;-82
2022/11/01 22:17:15;;;;;;;8.65;1.58;;;;;;;12.20;100.00;101250.09;12787936;23;20008;-82
2022/11/01 22:22:16;;;;;;;9.18;1.48;;;;;;;12.24;100.00;101256.78;12813402;23;20020;-81
2022/11/01 22:27:16;;;;;;;13.82;1.88;;;;;;;12.21;100.00;101251.75;12786561;23;20043;-79
2022/11/01 22:32:17;;;;;;;6.97;1.45;;;;;;;12.17;100.00;101245.09;12788013;23;20012;-82
2022/11/01 22:37:17;;;;;;;12.75;2.25;;;;;;;12.38;100.00;101237.06;12812230;23;20076;-82
2022/11/01 22:42:18;;;;;;;6.68;1.75;;;;;;;12.34;100.00;101211.06;12812120;23;20074;-81
2022/11/01 22:47:25;;;;;;;11.68;2.05;;;;;;;12.32;100.00;101225.13;12812507;23;20024;-81
2022/11/01 22:52:37;;;;;;;8.40;1.60;;;;;;;12.02;100.00;101186.94;12837457;23;20016;-81
2022/11/01 22:57:45;;;;;;;8.45;1.40;;;;;;;12.14;100.00;101234.56;12836830;23;20021;-81
2022/11/01 23:02:46;;;;;;;15.43;2.00;;;;;;;12.09;100.00;101220.69;12812633;23;20331;-81
2022/11/01 23:07:47;;;;;;;8.20;1.30;;;;;;;11.92;100.00;101209.72;12861985;23;20017;-81
2022/11/01 23:18:19;;;;;;;15.32;2.00;;;;;;;11.97;100.00;101218.06;12820149;23;20020;-81
2022/11/01 23:23:20;;;;;;;13.30;2.55;;;;;;;11.91;100.00;101208.88;12811823;23;20023;-81
2022/11/01 23:28:21;;;;;;;14.80;2.03;;;;;;;11.83;100.00;101189.97;12836225;23;20015;-81
2022/11/01 23:33:22;;;;;;;10.13;1.80;;;;;;;11.96;100.00;101216.38;12811301;23;20072;-81
2022/11/01 23:38:32;;;;;;;14.85;3.20;;;;;;;11.73;100.00;101175.22;12787151;23;20020;-81
2022/11/01 23:43:35;;;;;;;10.23;2.03;;;;;;;12.03;100.00;101202.38;12787458;23;20031;-81
2022/11/01 23:48:35;;;;;;;10.23;1.42;;;;;;;12.05;100.00;101190.03;12785804;23;20040;-81